sensor_id;sensor_type;location;lat;lon;timestamp;P1;durP1;ratioP1;P2;durP2;ratioP2
14125;SDS011;7141;49.484;11.242;2023-02-12T00:02:08;39.37;;;20.50;;
14125;SDS011;7141;49.484;11.242;2023-02-12T00:04:34;39.77;;;20.97;;
14125;SDS011;7141;49.484;11.242;2023-02-12T00:07:00;37.97;;;21.70;;
14125;SDS011;7141;49.484;11.242;2023-02-12T00:09:26;35.70;;;21.67;;
14125;SDS011;7141;49.484;11.242;2023-02-12T00:11:52;32.17;;;19.60;;
14125;SDS011;7141;49.484;11.242;2023-02-12T00:14:18;35.87;;;20.63;;
14125;SDS011;7141;49.484;11.242;2023-02-12T00:16:44;35.93;;;20.27;;
14125;SDS011;7141;49.484;11.242;2023-02-12T00:19:10;35.43;;;19.87;;
14125;SDS011;7141;49.484;11.242;2023-02-12T00:21:36;33.47;;;20.23;;
14125;SDS011;7141;49.484;11.242;2023-02-12T00:24:02;34.43;;;18.93;;
14125;SDS011;7141;49.484;11.242;2023-02-12T00:26:28;34.00;;;20.10;;
14125;SDS011;7141;49.484;11.242;2023-02-12T00:28:54;35.73;;;19.80;;
14125;SDS011;7141;49.484;11.242;2023-02-12T00:31:22;34.50;;;19.50;;
14125;SDS011;7141;49.484;11.242;2023-02-12T00:33:49;34.70;;;18.23;;
14125;SDS011;7141;49.484;11.242;2023-02-12T00:36:16;32.17;;;18.87;;
14125;SDS011;7141;49.484;11.242;2023-02-12T00:38:43;30.13;;;18.53;;
14125;SDS011;7141;49.484;11.242;2023-02-12T00:41:09;31.73;;;18.53;;
14125;SDS011;7141;49.484;11.242;2023-02-12T00:43:35;36.63;;;18.23;;
14125;SDS011;7141;49.484;11.242;2023-02-12T00:46:02;32.97;;;19.57;;
14125;SDS011;7141;49.484;11.242;2023-02-12T00:48:29;32.87;;;19.37;;
14125;SDS011;7141;49.484;11.242;2023-02-12T00:50:55;34.63;;;19.53;;
14125;SDS011;7141;49.484;11.242;2023-02-12T00:53:21;30.87;;;18.50;;
14125;SDS011;7141;49.484;11.242;2023-02-12T00:55:47;34.20;;;20.03;;
14125;SDS011;7141;49.484;11.242;2023-02-12T00:58:13;31.97;;;19.53;;
14125;SDS011;7141;49.484;11.242;2023-02-12T01:00:40;37.60;;;21.07;;
14125;SDS011;7141;49.484;11.242;2023-02-12T01:03:06;37.17;;;20.70;;
14125;SDS011;7141;49.484;11.242;2023-02-12T01:05:32;36.63;;;21.60;;
14125;SDS011;7141;49.484;11.242;2023-02-12T01:07:58;37.43;;;22.30;;
14125;SDS011;7141;49.484;11.242;2023-02-12T01:10:25;34.50;;;20.13;;
14125;SDS011;7141;49.484;11.242;2023-02-12T01:12:51;31.30;;;18.03;;
14125;SDS011;7141;49.484;11.242;2023-02-12T01:15:17;32.70;;;19.87;;
14125;SDS011;7141;49.484;11.242;2023-02-12T01:17:43;31.67;;;18.57;;
14125;SDS011;7141;49.484;11.242;2023-02-12T01:20:13;35.73;;;19.90;;
14125;SDS011;7141;49.484;11.242;2023-02-12T01:22:41;31.30;;;18.57;;
14125;SDS011;7141;49.484;11.242;2023-02-12T01:25:08;32.23;;;19.13;;
14125;SDS011;7141;49.484;11.242;2023-02-12T01:27:34;34.70;;;18.50;;
14125;SDS011;7141;49.484;11.242;2023-02-12T01:30:00;32.87;;;18.93;;
14125;SDS011;7141;49.484;11.242;2023-02-12T01:32:26;33.47;;;18.67;;
14125;SDS011;7141;49.484;11.242;2023-02-12T01:34:52;33.90;;;19.03;;
14125;SDS011;7141;49.484;11.242;2023-02-12T01:37:18;32.70;;;17.90;;
14125;SDS011;7141;49.484;11.242;2023-02-12T01:39:44;29.70;;;18.27;;
14125;SDS011;7141;49.484;11.242;2023-02-12T01:42:13;27.53;;;16.63;;
14125;SDS011;7141;49.484;11.242;2023-02-12T01:44:43;33.00;;;17.77;;
14125;SDS011;7141;49.484;11.242;2023-02-12T01:47:10;31.67;;;17.13;;
14125;SDS011;7141;49.484;11.242;2023-02-12T01:49:39;30.03;;;18.33;;
14125;SDS011;7141;49.484;11.242;2023-02-12T01:52:07;31.83;;;17.80;;
14125;SDS011;7141;49.484;11.242;2023-02-12T01:54:35;36.30;;;19.23;;
14125;SDS011;7141;49.484;11.242;2023-02-12T01:57:02;30.57;;;17.93;;
14125;SDS011;7141;49.484;11.242;2023-02-12T01:59:29;30.93;;;18.50;;
14125;SDS011;7141;49.484;11.242;2023-02-12T02:01:56;30.17;;;18.77;;
14125;SDS011;7141;49.484;11.242;2023-02-12T02:04:23;35.50;;;18.73;;
14125;SDS011;7141;49.484;11.242;2023-02-12T02:06:58;30.27;;;18.47;;
14125;SDS011;7141;49.484;11.242;2023-02-12T02:09:24;29.50;;;18.33;;
14125;SDS011;7141;49.484;11.242;2023-02-12T02:11:51;33.07;;;17.03;;
14125;SDS011;7141;49.484;11.242;2023-02-12T02:14:36;31.80;;;17.57;;
14125;SDS011;7141;49.484;11.242;2023-02-12T02:17:11;30.03;;;17.00;;
14125;SDS011;7141;49.484;11.242;2023-02-12T02:22:28;27.27;;;17.13;;
14125;SDS011;7141;49.484;11.242;2023-02-12T02:25:10;28.83;;;17.23;;
14125;SDS011;7141;49.484;11.242;2023-02-12T02:30:30;33.90;;;18.20;;
14125;SDS011;7141;49.484;11.242;2023-02-12T02:38:50;33.00;;;19.07;;
14125;SDS011;7141;49.484;11.242;2023-02-12T02:40:52;30.73;;;19.57;;
14125;SDS011;7141;49.484;11.242;2023-02-12T02:43:22;34.37;;;18.30;;
14125;SDS011;7141;49.484;11.242;2023-02-12T02:45:52;33.67;;;18.50;;
14125;SDS011;7141;49.484;11.242;2023-02-12T02:50:51;31.93;;;17.87;;
14125;SDS011;7141;49.484;11.242;2023-02-12T02:53:21;30.13;;;17.17;;
14125;SDS011;7141;49.484;11.242;2023-02-12T02:55:52;30.37;;;17.27;;
14125;SDS011;7141;49.484;11.242;2023-02-12T02:58:21;28.27;;;17.10;;
14125;SDS011;7141;49.484;11.242;2023-02-12T03:00:51;30.30;;;17.17;;
14125;SDS011;7141;49.484;11.242;2023-02-12T03:05:49;30.87;;;17.47;;
14125;SDS011;7141;49.484;11.242;2023-02-12T03:08:19;28.03;;;16.17;;
14125;SDS011;7141;49.484;11.242;2023-02-12T03:10:49;27.20;;;15.67;;
14125;SDS011;7141;49.484;11.242;2023-02-12T03:13:18;27.30;;;15.73;;
14125;SDS011;7141;49.484;11.242;2023-02-12T03:15:50;26.10;;;15.47;;
14125;SDS011;7141;49.484;11.242;2023-02-12T03:18:19;31.10;;;17.03;;
14125;SDS011;7141;49.484;11.242;2023-02-12T03:20:47;30.17;;;16.90;;
14125;SDS011;7141;49.484;11.242;2023-02-12T03:23:21;26.87;;;16.23;;
14125;SDS011;7141;49.484;11.242;2023-02-12T03:28:49;29.63;;;17.57;;
14125;SDS011;7141;49.484;11.242;2023-02-12T03:36:56;35.90;;;18.03;;
14125;SDS011;7141;49.484;11.242;2023-02-12T03:39:33;31.90;;;18.20;;
14125;SDS011;7141;49.484;11.242;2023-02-12T03:42:03;33.20;;;19.73;;
14125;SDS011;7141;49.484;11.242;2023-02-12T03:52:45;35.30;;;19.63;;
14125;SDS011;7141;49.484;11.242;2023-02-12T03:55:13;34.93;;;20.77;;
14125;SDS011;7141;49.484;11.242;2023-02-12T03:57:40;36.90;;;20.60;;
14125;SDS011;7141;49.484;11.242;2023-02-12T04:00:09;31.67;;;18.63;;
14125;SDS011;7141;49.484;11.242;2023-02-12T04:02:35;34.40;;;19.83;;
14125;SDS011;7141;49.484;11.242;2023-02-12T04:05:03;36.97;;;20.57;;
14125;SDS011;7141;49.484;11.242;2023-02-12T04:07:29;35.13;;;19.73;;
14125;SDS011;7141;49.484;11.242;2023-02-12T04:09:55;33.17;;;20.17;;
14125;SDS011;7141;49.484;11.242;2023-02-12T04:22:35;33.70;;;19.47;;
14125;SDS011;7141;49.484;11.242;2023-02-12T04:30:31;35.37;;;19.20;;
14125;SDS011;7141;49.484;11.242;2023-02-12T04:32:59;39.03;;;20.70;;
14125;SDS011;7141;49.484;11.242;2023-02-12T04:35:30;34.80;;;20.10;;
14125;SDS011;7141;49.484;11.242;2023-02-12T04:38:02;32.37;;;19.00;;
14125;SDS011;7141;49.484;11.242;2023-02-12T04:40:30;31.57;;;19.07;;
14125;SDS011;7141;49.484;11.242;2023-02-12T04:42:56;34.70;;;19.23;;
14125;SDS011;7141;49.484;11.242;2023-02-12T04:45:26;31.77;;;19.43;;
14125;SDS011;7141;49.484;11.242;2023-02-12T04:47:53;35.40;;;20.07;;
14125;SDS011;7141;49.484;11.242;2023-02-12T04:50:19;35.97;;;20.13;;
14125;SDS011;7141;49.484;11.242;2023-02-12T04:52:45;31.27;;;19.67;;
14125;SDS011;7141;49.484;11.242;2023-02-12T04:55:11;38.93;;;21.23;;
14125;SDS011;7141;49.484;11.242;2023-02-12T04:57:37;35.97;;;19.93;;
14125;SDS011;7141;49.484;11.242;2023-02-12T05:00:07;39.13;;;20.90;;
14125;SDS011;7141;49.484;11.242;2023-02-12T05:02:33;33.30;;;20.43;;
14125;SDS011;7141;49.484;11.242;2023-02-12T05:04:59;34.67;;;19.50;;
14125;SDS011;7141;49.484;11.242;2023-02-12T05:07:25;37.27;;;21.23;;
14125;SDS011;7141;49.484;11.242;2023-02-12T05:09:51;42.93;;;21.33;;
14125;SDS011;7141;49.484;11.242;2023-02-12T05:12:17;35.87;;;20.20;;
14125;SDS011;7141;49.484;11.242;2023-02-12T05:14:43;34.47;;;20.77;;
14125;SDS011;7141;49.484;11.242;2023-02-12T05:17:09;36.90;;;21.00;;
14125;SDS011;7141;49.484;11.242;2023-02-12T05:19:35;39.57;;;19.57;;
14125;SDS011;7141;49.484;11.242;2023-02-12T05:22:01;35.00;;;20.10;;
14125;SDS011;7141;49.484;11.242;2023-02-12T05:24:27;35.67;;;20.70;;
14125;SDS011;7141;49.484;11.242;2023-02-12T05:26:53;35.73;;;20.30;;
14125;SDS011;7141;49.484;11.242;2023-02-12T05:29:19;37.77;;;20.37;;
14125;SDS011;7141;49.484;11.242;2023-02-12T05:31:45;38.23;;;20.13;;
14125;SDS011;7141;49.484;11.242;2023-02-12T05:34:11;36.50;;;21.77;;
14125;SDS011;7141;49.484;11.242;2023-02-12T05:36:37;36.67;;;20.40;;
14125;SDS011;7141;49.484;11.242;2023-02-12T05:39:03;36.07;;;20.37;;
14125;SDS011;7141;49.484;11.242;2023-02-12T05:41:29;37.37;;;21.03;;
14125;SDS011;7141;49.484;11.242;2023-02-12T05:43:59;36.63;;;20.57;;
14125;SDS011;7141;49.484;11.242;2023-02-12T05:46:25;36.80;;;20.70;;
14125;SDS011;7141;49.484;11.242;2023-02-12T05:48:51;36.13;;;20.47;;
14125;SDS011;7141;49.484;11.242;2023-02-12T05:51:18;37.50;;;21.27;;
14125;SDS011;7141;49.484;11.242;2023-02-12T05:53:45;38.00;;;20.33;;
14125;SDS011;7141;49.484;11.242;2023-02-12T05:56:12;42.33;;;21.77;;
14125;SDS011;7141;49.484;11.242;2023-02-12T05:58:39;37.37;;;21.53;;
14125;SDS011;7141;49.484;11.242;2023-02-12T06:01:16;37.47;;;20.93;;
14125;SDS011;7141;49.484;11.242;2023-02-12T06:03:42;35.37;;;20.40;;
14125;SDS011;7141;49.484;11.242;2023-02-12T06:06:08;37.60;;;22.70;;
14125;SDS011;7141;49.484;11.242;2023-02-12T06:08:35;48.33;;;22.27;;
14125;SDS011;7141;49.484;11.242;2023-02-12T06:11:01;37.37;;;21.40;;
14125;SDS011;7141;49.484;11.242;2023-02-12T06:13:27;36.90;;;21.50;;
14125;SDS011;7141;49.484;11.242;2023-02-12T06:15:53;37.20;;;20.93;;
14125;SDS011;7141;49.484;11.242;2023-02-12T06:18:19;34.23;;;21.47;;
14125;SDS011;7141;49.484;11.242;2023-02-12T06:20:45;39.60;;;21.80;;
14125;SDS011;7141;49.484;11.242;2023-02-12T06:23:11;40.70;;;22.17;;
14125;SDS011;7141;49.484;11.242;2023-02-12T06:25:37;39.10;;;21.13;;
14125;SDS011;7141;49.484;11.242;2023-02-12T06:28:03;40.73;;;21.17;;
14125;SDS011;7141;49.484;11.242;2023-02-12T06:30:29;41.17;;;22.60;;
14125;SDS011;7141;49.484;11.242;2023-02-12T06:32:55;39.63;;;22.67;;
14125;SDS011;7141;49.484;11.242;2023-02-12T06:35:21;41.90;;;23.47;;
14125;SDS011;7141;49.484;11.242;2023-02-12T06:37:47;47.50;;;25.27;;
14125;SDS011;7141;49.484;11.242;2023-02-12T06:40:13;43.87;;;23.83;;
14125;SDS011;7141;49.484;11.242;2023-02-12T06:42:40;45.47;;;24.40;;
14125;SDS011;7141;49.484;11.242;2023-02-12T06:45:06;49.23;;;25.80;;
14125;SDS011;7141;49.484;11.242;2023-02-12T06:47:32;42.83;;;24.00;;
14125;SDS011;7141;49.484;11.242;2023-02-12T06:49:58;45.30;;;26.17;;
14125;SDS011;7141;49.484;11.242;2023-02-12T06:52:23;45.90;;;26.83;;
14125;SDS011;7141;49.484;11.242;2023-02-12T06:54:49;49.40;;;30.40;;
14125;SDS011;7141;49.484;11.242;2023-02-12T06:57:15;35.13;;;22.23;;
14125;SDS011;7141;49.484;11.242;2023-02-12T06:59:41;46.63;;;27.53;;
14125;SDS011;7141;49.484;11.242;2023-02-12T07:02:08;48.53;;;26.53;;
14125;SDS011;7141;49.484;11.242;2023-02-12T07:04:36;45.00;;;26.57;;
14125;SDS011;7141;49.484;11.242;2023-02-12T07:07:02;45.40;;;25.80;;
14125;SDS011;7141;49.484;11.242;2023-02-12T07:09:29;40.53;;;24.57;;
14125;SDS011;7141;49.484;11.242;2023-02-12T07:11:56;44.13;;;24.07;;
14125;SDS011;7141;49.484;11.242;2023-02-12T07:14:22;40.57;;;22.53;;
14125;SDS011;7141;49.484;11.242;2023-02-12T07:16:48;41.03;;;23.47;;
14125;SDS011;7141;49.484;11.242;2023-02-12T07:19:14;39.27;;;23.03;;
14125;SDS011;7141;49.484;11.242;2023-02-12T07:21:41;39.30;;;22.20;;
14125;SDS011;7141;49.484;11.242;2023-02-12T07:24:08;41.43;;;23.10;;
14125;SDS011;7141;49.484;11.242;2023-02-12T07:26:35;43.27;;;22.80;;
14125;SDS011;7141;49.484;11.242;2023-02-12T07:29:01;39.90;;;22.93;;
14125;SDS011;7141;49.484;11.242;2023-02-12T07:31:27;40.27;;;23.10;;
14125;SDS011;7141;49.484;11.242;2023-02-12T07:33:54;40.37;;;23.50;;
14125;SDS011;7141;49.484;11.242;2023-02-12T07:36:20;44.27;;;24.07;;
14125;SDS011;7141;49.484;11.242;2023-02-12T07:38:47;40.87;;;22.60;;
14125;SDS011;7141;49.484;11.242;2023-02-12T07:41:18;41.67;;;22.80;;
14125;SDS011;7141;49.484;11.242;2023-02-12T07:43:44;39.37;;;24.30;;
14125;SDS011;7141;49.484;11.242;2023-02-12T07:46:12;42.80;;;24.90;;
14125;SDS011;7141;49.484;11.242;2023-02-12T07:48:38;43.93;;;24.83;;
14125;SDS011;7141;49.484;11.242;2023-02-12T07:51:08;43.63;;;24.30;;
14125;SDS011;7141;49.484;11.242;2023-02-12T07:53:34;44.53;;;25.97;;
14125;SDS011;7141;49.484;11.242;2023-02-12T07:56:08;52.23;;;28.20;;
14125;SDS011;7141;49.484;11.242;2023-02-12T07:58:34;46.30;;;25.87;;
14125;SDS011;7141;49.484;11.242;2023-02-12T08:01:00;44.80;;;25.80;;
14125;SDS011;7141;49.484;11.242;2023-02-12T08:03:35;42.97;;;24.13;;
14125;SDS011;7141;49.484;11.242;2023-02-12T08:06:05;41.30;;;24.97;;
14125;SDS011;7141;49.484;11.242;2023-02-12T08:08:31;43.37;;;25.07;;
14125;SDS011;7141;49.484;11.242;2023-02-12T08:10:57;41.27;;;23.00;;
14125;SDS011;7141;49.484;11.242;2023-02-12T08:13:23;40.77;;;24.20;;
14125;SDS011;7141;49.484;11.242;2023-02-12T08:15:49;42.87;;;24.73;;
14125;SDS011;7141;49.484;11.242;2023-02-12T08:18:15;42.83;;;24.27;;
14125;SDS011;7141;49.484;11.242;2023-02-12T08:20:41;46.13;;;23.27;;
14125;SDS011;7141;49.484;11.242;2023-02-12T08:23:07;39.43;;;22.07;;
14125;SDS011;7141;49.484;11.242;2023-02-12T08:25:33;42.47;;;23.33;;
14125;SDS011;7141;49.484;11.242;2023-02-12T08:28:00;45.27;;;25.20;;
14125;SDS011;7141;49.484;11.242;2023-02-12T08:30:26;43.90;;;24.43;;
14125;SDS011;7141;49.484;11.242;2023-02-12T08:32:52;44.77;;;24.43;;
14125;SDS011;7141;49.484;11.242;2023-02-12T08:35:18;43.57;;;23.53;;
14125;SDS011;7141;49.484;11.242;2023-02-12T08:37:44;44.37;;;24.60;;
14125;SDS011;7141;49.484;11.242;2023-02-12T08:40:10;43.50;;;23.57;;
14125;SDS011;7141;49.484;11.242;2023-02-12T08:42:37;42.57;;;23.63;;
14125;SDS011;7141;49.484;11.242;2023-02-12T08:45:03;40.80;;;23.70;;
14125;SDS011;7141;49.484;11.242;2023-02-12T08:47:29;46.43;;;25.13;;
14125;SDS011;7141;49.484;11.242;2023-02-12T08:49:55;45.20;;;24.20;;
14125;SDS011;7141;49.484;11.242;2023-02-12T08:52:21;51.13;;;26.57;;
14125;SDS011;7141;49.484;11.242;2023-02-12T08:54:47;43.57;;;23.53;;
14125;SDS011;7141;49.484;11.242;2023-02-12T08:57:13;49.90;;;26.10;;
14125;SDS011;7141;49.484;11.242;2023-02-12T08:59:39;43.60;;;24.73;;
14125;SDS011;7141;49.484;11.242;2023-02-12T09:02:05;55.93;;;26.30;;
14125;SDS011;7141;49.484;11.242;2023-02-12T09:04:32;55.97;;;25.57;;
14125;SDS011;7141;49.484;11.242;2023-02-12T09:06:59;61.20;;;27.67;;
14125;SDS011;7141;49.484;11.242;2023-02-12T09:09:25;58.83;;;27.97;;
14125;SDS011;7141;49.484;11.242;2023-02-12T09:11:52;53.37;;;27.40;;
14125;SDS011;7141;49.484;11.242;2023-02-12T09:14:18;58.90;;;27.40;;
14125;SDS011;7141;49.484;11.242;2023-02-12T09:16:47;55.07;;;27.73;;
14125;SDS011;7141;49.484;11.242;2023-02-12T09:19:16;65.87;;;30.30;;
14125;SDS011;7141;49.484;11.242;2023-02-12T09:21:42;62.53;;;29.30;;
14125;SDS011;7141;49.484;11.242;2023-02-12T09:24:08;58.50;;;28.77;;
14125;SDS011;7141;49.484;11.242;2023-02-12T09:26:34;57.97;;;28.77;;
14125;SDS011;7141;49.484;11.242;2023-02-12T09:29:00;56.87;;;29.13;;
14125;SDS011;7141;49.484;11.242;2023-02-12T09:31:27;62.23;;;28.83;;
14125;SDS011;7141;49.484;11.242;2023-02-12T09:33:54;55.20;;;28.23;;
14125;SDS011;7141;49.484;11.242;2023-02-12T09:36:20;59.60;;;29.50;;
14125;SDS011;7141;49.484;11.242;2023-02-12T09:38:46;56.73;;;28.37;;
14125;SDS011;7141;49.484;11.242;2023-02-12T09:44:04;55.27;;;27.10;;
14125;SDS011;7141;49.484;11.242;2023-02-12T09:46:32;57.17;;;27.27;;
14125;SDS011;7141;49.484;11.242;2023-02-12T09:51:24;54.60;;;27.90;;
14125;SDS011;7141;49.484;11.242;2023-02-12T09:53:54;67.33;;;30.23;;
14125;SDS011;7141;49.484;11.242;2023-02-12T09:56:24;61.87;;;27.20;;
14125;SDS011;7141;49.484;11.242;2023-02-12T09:58:52;57.20;;;27.73;;
14125;SDS011;7141;49.484;11.242;2023-02-12T10:01:20;57.87;;;28.60;;
14125;SDS011;7141;49.484;11.242;2023-02-12T10:03:47;53.10;;;25.77;;
14125;SDS011;7141;49.484;11.242;2023-02-12T10:08:49;37.53;;;20.17;;
14125;SDS011;7141;49.484;11.242;2023-02-12T10:13:53;40.47;;;21.63;;
14125;SDS011;7141;49.484;11.242;2023-02-12T10:16:34;41.63;;;21.87;;
14125;SDS011;7141;49.484;11.242;2023-02-12T10:19:08;47.60;;;23.50;;
14125;SDS011;7141;49.484;11.242;2023-02-12T10:21:42;46.47;;;23.37;;
14125;SDS011;7141;49.484;11.242;2023-02-12T10:24:33;48.90;;;23.80;;
14125;SDS011;7141;49.484;11.242;2023-02-12T10:27:10;42.90;;;21.70;;
14125;SDS011;7141;49.484;11.242;2023-02-12T10:29:38;40.63;;;20.87;;
14125;SDS011;7141;49.484;11.242;2023-02-12T10:32:11;42.10;;;21.30;;
14125;SDS011;7141;49.484;11.242;2023-02-12T10:34:39;41.60;;;22.87;;
14125;SDS011;7141;49.484;11.242;2023-02-12T10:37:51;44.73;;;22.37;;
14125;SDS011;7141;49.484;11.242;2023-02-12T10:40:04;44.60;;;21.23;;
14125;SDS011;7141;49.484;11.242;2023-02-12T10:42:39;49.80;;;23.07;;
14125;SDS011;7141;49.484;11.242;2023-02-12T10:45:08;46.33;;;22.60;;
14125;SDS011;7141;49.484;11.242;2023-02-12T10:47:37;48.17;;;23.67;;
14125;SDS011;7141;49.484;11.242;2023-02-12T10:50:07;50.63;;;24.53;;
14125;SDS011;7141;49.484;11.242;2023-02-12T10:52:40;51.23;;;24.77;;
14125;SDS011;7141;49.484;11.242;2023-02-12T10:57:54;47.00;;;24.00;;
14125;SDS011;7141;49.484;11.242;2023-02-12T11:05:32;45.53;;;23.43;;
14125;SDS011;7141;49.484;11.242;2023-02-12T11:07:58;51.97;;;26.40;;
14125;SDS011;7141;49.484;11.242;2023-02-12T11:10:26;48.67;;;25.27;;
14125;SDS011;7141;49.484;11.242;2023-02-12T11:12:52;49.60;;;25.67;;
14125;SDS011;7141;49.484;11.242;2023-02-12T11:15:19;54.10;;;26.00;;
14125;SDS011;7141;49.484;11.242;2023-02-12T11:18:03;52.20;;;26.27;;
14125;SDS011;7141;49.484;11.242;2023-02-12T11:20:39;51.63;;;24.40;;
14125;SDS011;7141;49.484;11.242;2023-02-12T11:23:08;50.80;;;24.50;;
14125;SDS011;7141;49.484;11.242;2023-02-12T11:26:23;44.47;;;23.70;;
14125;SDS011;7141;49.484;11.242;2023-02-12T11:28:39;43.00;;;22.50;;
14125;SDS011;7141;49.484;11.242;2023-02-12T11:31:21;49.30;;;24.07;;
14125;SDS011;7141;49.484;11.242;2023-02-12T11:34:05;44.23;;;21.93;;
14125;SDS011;7141;49.484;11.242;2023-02-12T11:36:32;45.33;;;23.23;;
14125;SDS011;7141;49.484;11.242;2023-02-12T11:38:58;50.67;;;24.53;;
14125;SDS011;7141;49.484;11.242;2023-02-12T11:41:35;45.03;;;23.83;;
14125;SDS011;7141;49.484;11.242;2023-02-12T11:44:12;46.93;;;25.37;;
14125;SDS011;7141;49.484;11.242;2023-02-12T11:46:44;48.20;;;23.87;;
14125;SDS011;7141;49.484;11.242;2023-02-12T11:49:16;45.37;;;23.13;;
14125;SDS011;7141;49.484;11.242;2023-02-12T11:51:45;42.43;;;22.10;;
14125;SDS011;7141;49.484;11.242;2023-02-12T11:54:16;42.60;;;22.30;;
14125;SDS011;7141;49.484;11.242;2023-02-12T11:56:46;45.73;;;21.37;;
14125;SDS011;7141;49.484;11.242;2023-02-12T12:01:44;45.43;;;23.40;;
14125;SDS011;7141;49.484;11.242;2023-02-12T12:04:12;43.47;;;23.07;;
14125;SDS011;7141;49.484;11.242;2023-02-12T12:06:45;58.07;;;30.70;;
14125;SDS011;7141;49.484;11.242;2023-02-12T12:09:18;62.50;;;35.03;;
14125;SDS011;7141;49.484;11.242;2023-02-12T12:16:48;47.10;;;23.97;;
14125;SDS011;7141;49.484;11.242;2023-02-12T12:24:56;40.70;;;22.83;;
14125;SDS011;7141;49.484;11.242;2023-02-12T12:32:58;41.17;;;22.23;;
14125;SDS011;7141;49.484;11.242;2023-02-12T12:35:30;43.77;;;23.50;;
14125;SDS011;7141;49.484;11.242;2023-02-12T12:38:02;38.37;;;20.10;;
14125;SDS011;7141;49.484;11.242;2023-02-12T12:41:17;39.13;;;21.00;;
14125;SDS011;7141;49.484;11.242;2023-02-12T12:43:24;37.63;;;20.37;;
14125;SDS011;7141;49.484;11.242;2023-02-12T12:45:57;35.47;;;18.73;;
14125;SDS011;7141;49.484;11.242;2023-02-12T12:49:10;34.40;;;18.13;;
14125;SDS011;7141;49.484;11.242;2023-02-12T12:53:49;35.13;;;19.40;;
14125;SDS011;7141;49.484;11.242;2023-02-12T12:58:55;67.50;;;32.20;;
14125;SDS011;7141;49.484;11.242;2023-02-12T13:06:23;33.63;;;20.27;;
14125;SDS011;7141;49.484;11.242;2023-02-12T13:13:47;36.93;;;19.10;;
14125;SDS011;7141;49.484;11.242;2023-02-12T13:16:32;34.83;;;20.07;;
14125;SDS011;7141;49.484;11.242;2023-02-12T13:24:04;33.73;;;19.07;;
14125;SDS011;7141;49.484;11.242;2023-02-12T13:26:34;30.53;;;18.10;;
14125;SDS011;7141;49.484;11.242;2023-02-12T13:29:07;32.13;;;17.43;;
14125;SDS011;7141;49.484;11.242;2023-02-12T13:31:42;32.83;;;18.93;;
14125;SDS011;7141;49.484;11.242;2023-02-12T13:34:10;31.93;;;18.67;;
14125;SDS011;7141;49.484;11.242;2023-02-12T13:36:38;31.93;;;17.83;;
14125;SDS011;7141;49.484;11.242;2023-02-12T13:39:15;26.07;;;16.97;;
14125;SDS011;7141;49.484;11.242;2023-02-12T13:41:45;31.47;;;17.27;;
14125;SDS011;7141;49.484;11.242;2023-02-12T13:44:19;34.57;;;19.30;;
14125;SDS011;7141;49.484;11.242;2023-02-12T13:55:33;30.33;;;17.37;;
14125;SDS011;7141;49.484;11.242;2023-02-12T13:57:27;32.53;;;17.50;;
14125;SDS011;7141;49.484;11.242;2023-02-12T13:59:53;32.27;;;18.03;;
14125;SDS011;7141;49.484;11.242;2023-02-12T14:05:13;27.10;;;15.90;;
14125;SDS011;7141;49.484;11.242;2023-02-12T14:07:47;30.50;;;16.77;;
14125;SDS011;7141;49.484;11.242;2023-02-12T14:10:28;27.87;;;15.93;;
14125;SDS011;7141;49.484;11.242;2023-02-12T14:13:07;28.63;;;16.50;;
14125;SDS011;7141;49.484;11.242;2023-02-12T14:15:35;29.20;;;15.17;;
14125;SDS011;7141;49.484;11.242;2023-02-12T14:20:32;26.90;;;16.10;;
14125;SDS011;7141;49.484;11.242;2023-02-12T14:25:47;30.87;;;16.63;;
14125;SDS011;7141;49.484;11.242;2023-02-12T14:28:22;29.83;;;16.80;;
14125;SDS011;7141;49.484;11.242;2023-02-12T14:33:50;28.73;;;17.23;;
14125;SDS011;7141;49.484;11.242;2023-02-12T14:41:43;30.87;;;16.87;;
14125;SDS011;7141;49.484;11.242;2023-02-12T14:49:18;32.53;;;17.27;;
14125;SDS011;7141;49.484;11.242;2023-02-12T14:54:28;30.70;;;16.57;;
14125;SDS011;7141;49.484;11.242;2023-02-12T14:56:55;28.50;;;16.07;;
14125;SDS011;7141;49.484;11.242;2023-02-12T14:59:25;28.77;;;16.50;;
14125;SDS011;7141;49.484;11.242;2023-02-12T15:01:52;37.00;;;16.63;;
14125;SDS011;7141;49.484;11.242;2023-02-12T15:04:20;29.63;;;16.77;;
14125;SDS011;7141;49.484;11.242;2023-02-12T15:07:10;29.90;;;16.60;;
14125;SDS011;7141;49.484;11.242;2023-02-12T15:09:37;30.10;;;16.37;;
14125;SDS011;7141;49.484;11.242;2023-02-12T15:12:10;29.80;;;16.00;;
14125;SDS011;7141;49.484;11.242;2023-02-12T15:14:39;31.67;;;17.97;;
14125;SDS011;7141;49.484;11.242;2023-02-12T15:17:07;30.83;;;16.47;;
14125;SDS011;7141;49.484;11.242;2023-02-12T15:19:53;29.33;;;16.93;;
14125;SDS011;7141;49.484;11.242;2023-02-12T15:22:39;33.27;;;17.63;;
14125;SDS011;7141;49.484;11.242;2023-02-12T15:25:22;30.03;;;18.07;;
14125;SDS011;7141;49.484;11.242;2023-02-12T15:27:49;34.53;;;18.60;;
14125;SDS011;7141;49.484;11.242;2023-02-12T15:30:16;31.10;;;18.90;;
14125;SDS011;7141;49.484;11.242;2023-02-12T15:32:43;33.97;;;19.00;;
14125;SDS011;7141;49.484;11.242;2023-02-12T15:37:52;39.50;;;20.70;;
14125;SDS011;7141;49.484;11.242;2023-02-12T15:40:19;40.07;;;19.57;;
14125;SDS011;7141;49.484;11.242;2023-02-12T15:42:51;38.33;;;19.83;;
14125;SDS011;7141;49.484;11.242;2023-02-12T15:45:19;36.37;;;19.70;;
14125;SDS011;7141;49.484;11.242;2023-02-12T15:47:54;37.97;;;20.97;;
14125;SDS011;7141;49.484;11.242;2023-02-12T15:50:21;31.30;;;18.33;;
14125;SDS011;7141;49.484;11.242;2023-02-12T15:52:47;36.57;;;19.33;;
14125;SDS011;7141;49.484;11.242;2023-02-12T15:55:18;36.93;;;19.73;;
14125;SDS011;7141;49.484;11.242;2023-02-12T15:57:55;37.17;;;19.87;;
14125;SDS011;7141;49.484;11.242;2023-02-12T16:02:50;41.30;;;20.80;;
14125;SDS011;7141;49.484;11.242;2023-02-12T16:05:17;34.93;;;18.97;;
14125;SDS011;7141;49.484;11.242;2023-02-12T16:07:43;34.53;;;20.03;;
14125;SDS011;7141;49.484;11.242;2023-02-12T16:10:13;36.93;;;18.83;;
14125;SDS011;7141;49.484;11.242;2023-02-12T16:12:39;34.00;;;18.87;;
14125;SDS011;7141;49.484;11.242;2023-02-12T16:15:06;37.27;;;19.70;;
14125;SDS011;7141;49.484;11.242;2023-02-12T16:17:34;33.87;;;18.73;;
14125;SDS011;7141;49.484;11.242;2023-02-12T16:20:02;35.03;;;18.87;;
14125;SDS011;7141;49.484;11.242;2023-02-12T16:22:34;34.53;;;18.77;;
14125;SDS011;7141;49.484;11.242;2023-02-12T16:25:00;36.93;;;19.77;;
14125;SDS011;7141;49.484;11.242;2023-02-12T16:27:31;37.10;;;21.17;;
14125;SDS011;7141;49.484;11.242;2023-02-12T16:29:58;32.30;;;18.70;;
14125;SDS011;7141;49.484;11.242;2023-02-12T16:32:29;32.87;;;19.67;;
14125;SDS011;7141;49.484;11.242;2023-02-12T16:35:43;31.90;;;18.40;;
14125;SDS011;7141;49.484;11.242;2023-02-12T16:37:45;34.13;;;18.17;;
14125;SDS011;7141;49.484;11.242;2023-02-12T16:47:49;37.33;;;18.97;;
14125;SDS011;7141;49.484;11.242;2023-02-12T16:50:16;38.27;;;19.83;;
14125;SDS011;7141;49.484;11.242;2023-02-12T16:52:42;36.27;;;20.87;;
14125;SDS011;7141;49.484;11.242;2023-02-12T16:55:15;36.13;;;20.70;;
14125;SDS011;7141;49.484;11.242;2023-02-12T16:57:41;33.77;;;19.33;;
14125;SDS011;7141;49.484;11.242;2023-02-12T17:00:08;34.20;;;19.60;;
14125;SDS011;7141;49.484;11.242;2023-02-12T17:02:34;60.97;;;32.10;;